Time;durP1;ratioP1;P1;durP2;ratioP2;P2;SDS_P1;SDS_P2;PMS_P1;PMS_P2;Temp;Humidity;BMP_temperature;BMP_pressure;BME280_temperature;BME280_humidity;BME280_pressure;Samples;Min_cycle;Max_cycle;Signal;HPM_P1;HPM_P2
2022/01/26 00:07:18;;;;;;;58.87;31.00;;;;;;;-1.01;69.26;101766.13;1705404;83;26120;-61
2022/01/26 00:09:45;;;;;;;69.20;32.30;;;;;;;-0.96;69.58;101773.94;1769795;79;25460;-61
2022/01/26 00:12:12;;;;;;;65.75;34.35;;;;;;;-0.91;69.81;101764.58;1777895;78;27574;-61
2022/01/26 00:14:42;;;;;;;62.43;33.48;;;;;;;-0.86;69.66;101765.34;1782472;78;25746;-62
2022/01/26 00:17:10;;;;;;;64.72;34.25;;;;;;;-0.86;69.28;101765.34;1782206;78;25768;-61
2022/01/26 00:19:55;;;;;;;63.20;33.67;;;;;;;-0.86;69.26;101763.56;1778572;78;27306;-61
2022/01/26 00:28:19;;;;;;;65.83;34.85;;;;;;;-1.01;68.55;101748.10;1773870;79;25825;-62
2022/01/26 00:38:48;;;;;;;76.53;38.83;;;;;;;-1.43;68.71;101746.44;1765565;79;27491;-62
2022/01/26 00:41:20;;;;;;;80.55;39.78;;;;;;;-1.50;68.82;101750.98;1777210;78;25763;-63
2022/01/26 00:43:54;;;;;;;99.83;45.12;;;;;;;-1.54;69.16;101744.48;1785391;78;25757;-63
2022/01/26 00:46:21;;;;;;;93.10;44.03;;;;;;;-1.60;69.44;101741.52;1779334;78;26116;-63
2022/01/26 00:48:49;;;;;;;89.65;41.13;;;;;;;-1.64;69.38;101748.64;1781315;78;25776;-63
2022/01/26 00:51:20;;;;;;;77.65;39.70;;;;;;;-1.67;69.51;101746.09;1771633;79;27449;-63
2022/01/26 00:53:55;;;;;;;76.20;40.67;;;;;;;-1.68;69.53;101748.30;1778852;78;25722;-62
2022/01/26 00:56:18;;;;;;;71.28;39.18;;;;;;;-1.69;69.77;101747.00;1777650;78;25862;-62
2022/01/26 00:58:46;;;;;;;74.10;37.38;;;;;;;-1.72;69.79;101736.53;1788809;78;26792;-62
2022/01/26 01:01:13;;;;;;;76.47;39.10;;;;;;;-1.76;69.79;101739.23;1785659;78;25702;-62
2022/01/26 01:03:44;;;;;;;79.58;39.50;;;;;;;-1.77;69.99;101736.17;1780470;78;28173;-62
2022/01/26 01:06:18;;;;;;;73.55;37.83;;;;;;;-1.80;69.99;101732.73;1769469;79;25881;-63
2022/01/26 01:08:42;;;;;;;69.07;37.80;;;;;;;-1.82;70.34;101725.30;1779584;78;25689;-61
2022/01/26 01:11:10;;;;;;;78.78;40.00;;;;;;;-1.90;70.26;101718.42;1777952;78;26783;-62
2022/01/26 01:13:39;;;;;;;82.65;40.40;;;;;;;-1.90;70.25;101722.84;1779354;78;25991;-62
2022/01/26 01:16:09;;;;;;;77.15;39.53;;;;;;;-1.91;70.53;101723.73;1768844;78;27414;-62
2022/01/26 01:26:41;;;;;;;75.22;36.48;;;;;;;-1.98;70.56;101722.14;1769009;80;25801;-61
2022/01/26 01:31:48;;;;;;;77.85;37.78;;;;;;;-2.00;70.58;101714.70;1779485;79;27188;-61
2022/01/26 01:34:17;;;;;;;74.12;36.95;;;;;;;-2.00;70.55;101708.96;1772577;80;25766;-61
2022/01/26 01:36:49;;;;;;;72.97;37.35;;;;;;;-2.00;70.41;101707.64;1784302;79;26202;-61
2022/01/26 01:39:14;;;;;;;76.55;37.73;;;;;;;-1.99;70.23;101702.79;1790173;78;27366;-62
2022/01/26 01:41:44;;;;;;;75.20;37.08;;;;;;;-1.95;70.37;101705.80;1778740;78;27395;-61
2022/01/26 01:44:12;;;;;;;77.97;38.00;;;;;;;-1.87;70.32;101702.97;1785456;79;25812;-62
2022/01/26 01:46:41;;;;;;;74.07;36.88;;;;;;;-1.89;70.06;101692.47;1784607;79;25881;-60
2022/01/26 01:49:11;;;;;;;71.22;37.05;;;;;;;-1.82;70.04;101696.28;1764874;79;26752;-61
2022/01/26 01:51:42;;;;;;;72.82;36.65;;;;;;;-1.78;70.17;101691.37;1778566;79;25838;-61
2022/01/26 01:54:13;;;;;;;72.67;35.90;;;;;;;-1.78;69.80;101681.67;1779317;79;27282;-61
2022/01/26 01:56:39;;;;;;;71.82;36.98;;;;;;;-1.74;70.07;101689.06;1784626;78;25786;-61
2022/01/26 01:59:06;;;;;;;69.85;37.85;;;;;;;-1.70;70.18;101680.19;1777933;79;25858;-61
2022/01/26 02:01:33;;;;;;;70.60;36.90;;;;;;;-1.63;70.22;101684.41;1782302;79;26750;-61
2022/01/26 02:04:00;;;;;;;80.97;39.40;;;;;;;-1.57;69.99;101678.13;1784367;79;25739;-61
2022/01/26 02:06:27;;;;;;;77.92;41.95;;;;;;;-1.52;70.07;101681.98;1771436;79;27514;-61
2022/01/26 02:08:54;;;;;;;72.80;38.67;;;;;;;-1.49;70.03;101684.09;1778734;79;25821;-61
2022/01/26 02:11:21;;;;;;;80.80;37.55;;;;;;;-1.48;69.84;101679.70;1778647;79;25757;-61
2022/01/26 02:16:31;;;;;;;77.65;38.60;;;;;;;-1.48;69.66;101679.23;1787333;78;25786;-61
2022/01/26 02:57:42;;;;;;;68.97;34.65;;;;;;;-1.05;70.88;101672.47;1761384;79;25806;-61
2022/01/26 03:02:32;;;;;;;44.65;25.62;;;;;;;-1.14;70.91;101678.41;1734999;82;25648;-61
2022/01/26 03:04:54;;;;;;;47.03;23.18;;;;;;;-1.13;71.03;101670.91;1692234;83;25630;-62
2022/01/26 03:07:35;;;;;;;43.68;22.65;;;;;;;-1.06;71.50;101676.02;1700328;83;26092;-61
2022/01/26 03:10:06;;;;;;;42.48;22.62;;;;;;;-1.04;72.06;101665.86;1689469;84;25567;-61
2022/01/26 03:12:45;;;;;;;43.63;23.65;;;;;;;-1.03;72.85;101671.52;1692215;83;27429;-61
2022/01/26 03:15:14;;;;;;;38.88;22.30;;;;;;;-1.00;73.01;101666.17;1723510;82;25928;-61
2022/01/26 03:20:07;;;;;;;34.13;20.52;;;;;;;-0.91;72.81;101662.44;1735379;80;26346;-61
2022/01/26 03:35:59;;;;;;;33.98;18.60;;;;;;;-0.64;73.26;101659.49;1736556;82;25761;-61
2022/01/26 03:38:26;;;;;;;31.65;17.40;;;;;;;-0.58;73.89;101668.18;1722314;82;27510;-61
2022/01/26 03:41:00;;;;;;;25.23;13.90;;;;;;;-0.54;73.96;101660.56;1696907;82;25788;-61
2022/01/26 03:43:18;;;;;;;20.20;12.35;;;;;;;-0.55;74.45;101657.50;1706073;83;25782;-61
2022/01/26 03:45:45;;;;;;;17.15;10.70;;;;;;;-0.55;75.18;101663.67;1735342;81;26082;-61
2022/01/26 03:48:12;;;;;;;26.50;12.00;;;;;;;-0.56;75.81;101659.73;1694521;82;25454;-61
2022/01/26 03:50:39;;;;;;;18.67;11.55;;;;;;;-0.54;75.54;101660.56;1737278;82;29600;-61
2022/01/26 03:53:06;;;;;;;17.65;10.70;;;;;;;-0.51;76.04;101656.52;1701239;83;27293;-61
2022/01/26 03:55:33;;;;;;;18.42;11.75;;;;;;;-0.50;76.97;101654.30;1692625;83;25817;-61
2022/01/26 03:58:00;;;;;;;16.77;10.15;;;;;;;-0.50;77.62;101650.33;1702063;83;26921;-61
2022/01/26 04:00:27;;;;;;;17.45;10.13;;;;;;;-0.50;77.93;101654.30;1737289;82;26006;-62
2022/01/26 04:02:53;;;;;;;13.60;9.30;;;;;;;-0.48;77.46;101654.66;1697264;83;27518;-61
2022/01/26 04:05:20;;;;;;;17.07;10.70;;;;;;;-0.45;78.19;101647.55;1724165;82;25791;-61
2022/01/26 04:07:47;;;;;;;16.05;10.55;;;;;;;-0.46;78.00;101649.31;1759409;80;25735;-62
2022/01/26 04:10:25;;;;;;;20.85;10.88;;;;;;;-0.47;79.50;101639.65;1757802;80;26087;-62
2022/01/26 04:12:42;;;;;;;17.67;10.00;;;;;;;-0.50;79.53;101636.64;1732026;82;25820;-62
2022/01/26 04:15:20;;;;;;;16.70;11.12;;;;;;;-0.50;80.14;101639.28;1697073;83;27485;-63
2022/01/26 04:17:38;;;;;;;21.27;12.33;;;;;;;-0.49;79.86;101644.11;1727569;82;27147;-62
2022/01/26 04:20:06;;;;;;;18.35;10.08;;;;;;;-0.48;80.49;101644.52;1692467;83;25737;-62
2022/01/26 04:22:47;;;;;;;20.95;10.30;;;;;;;-0.48;80.53;101645.84;1722203;81;26057;-62
2022/01/26 04:25:03;;;;;;;17.73;11.30;;;;;;;-0.46;80.58;101637.89;1726867;81;25754;-62
2022/01/26 04:27:37;;;;;;;15.95;10.85;;;;;;;-0.44;80.37;101640.89;1715665;81;28196;-63
2022/01/26 04:29:59;;;;;;;19.02;10.72;;;;;;;-0.40;80.82;101642.99;1700832;82;25788;-62
2022/01/26 04:32:26;;;;;;;17.45;10.43;;;;;;;-0.37;80.55;101645.56;1708646;82;25798;-62
2022/01/26 04:34:53;;;;;;;25.45;10.65;;;;;;;-0.36;81.12;101639.36;1712633;82;26786;-62
2022/01/26 04:37:34;;;;;;;19.95;11.18;;;;;;;-0.35;81.70;101639.75;1706841;82;25881;-63
2022/01/26 04:40:06;;;;;;;21.68;11.63;;;;;;;-0.34;81.91;101636.20;1688802;83;25993;-62
2022/01/26 04:45:09;;;;;;;22.60;13.65;;;;;;;-0.38;82.57;101645.14;1684592;83;25824;-62
2022/01/26 04:47:36;;;;;;;21.40;12.58;;;;;;;-0.40;83.26;101649.13;1691695;83;26088;-63
2022/01/26 04:50:06;;;;;;;19.77;12.28;;;;;;;-0.38;82.40;101642.50;1691010;83;25919;-62
2022/01/26 04:52:33;;;;;;;22.87;11.33;;;;;;;-0.36;82.94;101638.04;1692455;83;28102;-62
2022/01/26 04:55:01;;;;;;;20.23;10.35;;;;;;;-0.35;83.34;101636.66;1687912;83;25873;-63
2022/01/26 04:57:27;;;;;;;20.57;12.33;;;;;;;-0.34;83.51;101637.08;1691469;83;25890;-63
2022/01/26 04:59:54;;;;;;;23.77;11.38;;;;;;;-0.30;82.50;101634.33;1686338;84;26120;-62
2022/01/26 05:02:21;;;;;;;16.48;11.08;;;;;;;-0.30;82.67;101632.56;1695949;83;27346;-62
2022/01/26 05:04:48;;;;;;;22.40;12.73;;;;;;;-0.26;82.22;101632.02;1696883;81;27488;-63
2022/01/26 05:07:14;;;;;;;23.38;11.65;;;;;;;-0.21;81.96;101630.97;1697129;83;25820;-62
2022/01/26 05:09:41;;;;;;;18.48;11.63;;;;;;;-0.16;81.48;101625.55;1692234;83;25732;-62
2022/01/26 05:12:12;;;;;;;39.73;20.43;;;;;;;-0.10;81.14;101624.50;1714910;81;26085;-62
2022/01/26 05:14:40;;;;;;;59.95;38.80;;;;;;;-0.02;80.92;101625.98;1704326;82;25880;-63
2022/01/26 05:17:07;;;;;;;42.17;25.37;;;;;;;0.06;80.73;101619.14;1684590;84;28723;-62
2022/01/26 05:19:34;;;;;;;34.60;16.80;;;;;;;0.19;80.91;101622.70;1710115;81;25828;-62
2022/01/26 05:22:00;;;;;;;27.48;13.75;;;;;;;0.30;80.73;101621.92;1750724;79;25524;-62
2022/01/26 05:24:28;;;;;;;34.48;16.10;;;;;;;0.35;80.37;101617.36;1774854;79;26113;-62
2022/01/26 05:26:55;;;;;;;25.08;13.05;;;;;;;0.41;80.19;101621.13;1772336;79;25809;-63
2022/01/26 05:29:22;;;;;;;22.13;13.13;;;;;;;0.49;80.16;101627.50;1784596;78;27470;-63
2022/01/26 05:31:49;;;;;;;24.32;14.55;;;;;;;0.55;80.00;101622.00;1783336;78;25698;-62
2022/01/26 05:34:16;;;;;;;29.92;16.55;;;;;;;0.63;79.94;101623.05;1790146;78;25735;-62
2022/01/26 05:36:43;;;;;;;40.40;19.70;;;;;;;0.65;79.38;101625.19;1818109;78;26115;-62
2022/01/26 05:39:11;;;;;;;29.67;17.75;;;;;;;0.66;78.91;101624.28;1815866;78;25712;-62
2022/01/26 05:41:39;;;;;;;50.73;21.02;;;;;;;0.69;78.76;101623.30;1796782;78;27495;-62
2022/01/26 05:44:08;;;;;;;26.77;17.42;;;;;;;0.69;78.44;101621.98;1820579;78;25744;-61
2022/01/26 05:46:44;;;;;;;30.25;17.50;;;;;;;0.70;78.28;101622.39;1796952;78;25807;-61
2022/01/26 05:49:04;;;;;;;31.12;17.02;;;;;;;0.67;77.88;101622.52;1791187;78;26111;-61
2022/01/26 05:51:33;;;;;;;46.05;16.65;;;;;;;0.67;77.83;101619.39;1786306;78;25805;-62
2022/01/26 05:54:02;;;;;;;42.70;15.28;;;;;;;0.69;77.75;101619.33;1785918;80;27427;-61
2022/01/26 05:56:29;;;;;;;45.28;16.12;;;;;;;0.67;77.62;101623.84;1784436;80;25744;-60
2022/01/26 05:58:57;;;;;;;31.68;14.90;;;;;;;0.62;77.88;101620.88;1786764;80;25667;-61
2022/01/26 06:01:25;;;;;;;35.52;17.55;;;;;;;0.64;77.72;101615.98;1746389;80;26092;-61
2022/01/26 06:03:52;;;;;;;33.90;18.62;;;;;;;0.67;77.99;101620.72;1793291;78;25907;-61
2022/01/26 06:06:19;;;;;;;39.13;17.55;;;;;;;0.75;78.04;101623.13;1779047;80;27543;-61
2022/01/26 06:08:46;;;;;;;39.13;17.67;;;;;;;0.83;78.22;101619.75;1788023;80;27192;-61
2022/01/26 06:11:14;;;;;;;43.65;18.57;;;;;;;0.91;78.06;101609.75;1788709;78;25857;-61
2022/01/26 06:13:40;;;;;;;24.72;13.65;;;;;;;0.96;77.94;101608.70;1785675;78;26095;-61
2022/01/26 06:16:07;;;;;;;42.75;17.55;;;;;;;0.93;77.56;101617.20;1802137;78;25805;-61
2022/01/26 06:18:34;;;;;;;71.62;25.52;;;;;;;0.88;77.33;101618.27;1820533;78;29537;-62
2022/01/26 06:21:01;;;;;;;37.13;20.68;;;;;;;0.93;77.91;101620.28;1814022;78;25688;-62
2022/01/26 06:23:28;;;;;;;45.65;18.80;;;;;;;0.98;77.89;101620.13;1701281;80;25831;-61
2022/01/26 06:25:58;;;;;;;32.73;14.70;;;;;;;1.03;78.02;101617.73;1771849;80;26113;-62
2022/01/26 06:28:28;;;;;;;36.42;12.23;;;;;;;1.08;78.04;101614.44;1771133;80;25792;-61
2022/01/26 06:31:03;;;;;;;20.80;11.60;;;;;;;1.12;78.02;101615.67;1763872;80;28426;-62
2022/01/26 06:33:28;;;;;;;23.83;9.75;;;;;;;1.16;77.87;101619.95;1769405;80;25778;-62
2022/01/26 06:35:57;;;;;;;21.45;9.25;;;;;;;1.18;77.90;101612.79;1778019;80;25797;-63
2022/01/26 06:38:25;;;;;;;17.15;8.60;;;;;;;1.22;77.88;101615.75;1771401;79;26188;-62
2022/01/26 06:40:54;;;;;;;17.15;10.18;;;;;;;1.24;77.66;101612.59;1781665;79;25769;-63
2022/01/26 06:43:26;;;;;;;22.15;10.23;;;;;;;1.22;77.62;101612.63;1771707;79;27241;-63
2022/01/26 06:46:01;;;;;;;19.25;11.48;;;;;;;1.16;77.54;101610.68;1768563;80;25760;-61
2022/01/26 06:51:13;;;;;;;15.88;10.53;;;;;;;1.09;78.14;101614.00;1770675;80;26113;-63
2022/01/26 06:53:41;;;;;;;18.90;8.80;;;;;;;1.03;77.84;101616.87;1773358;79;26216;-62
2022/01/26 06:56:08;;;;;;;16.42;7.55;;;;;;;1.04;78.10;101619.91;1774032;79;27954;-63
2022/01/26 06:58:35;;;;;;;15.15;8.10;;;;;;;1.02;78.33;101603.22;1770649;80;25781;-63
2022/01/26 07:01:02;;;;;;;12.05;7.67;;;;;;;0.97;78.21;101609.12;1769133;80;25905;-63
2022/01/26 07:03:29;;;;;;;17.02;8.00;;;;;;;0.93;78.24;101612.34;1771236;80;26093;-63
2022/01/26 07:05:55;;;;;;;22.20;11.15;;;;;;;0.86;78.97;101608.17;1771680;79;25757;-63
2022/01/26 07:08:25;;;;;;;23.45;10.58;;;;;;;0.82;79.08;101612.72;1789809;79;27083;-63
2022/01/26 07:10:53;;;;;;;15.48;8.98;;;;;;;0.85;78.92;101612.59;1768925;79;25574;-61
2022/01/26 07:13:22;;;;;;;24.02;12.82;;;;;;;0.88;78.83;101609.00;1772583;79;25880;-62
2022/01/26 07:21:25;;;;;;;20.45;12.13;;;;;;;0.90;79.97;101611.99;1756801;79;27527;-61
2022/01/26 07:23:58;;;;;;;16.60;9.35;;;;;;;0.93;79.54;101613.22;1770435;80;26069;-62
2022/01/26 07:26:30;;;;;;;15.32;7.58;;;;;;;1.01;79.70;101612.94;1778769;80;25727;-61
2022/01/26 07:29:05;;;;;;;12.75;8.08;;;;;;;1.05;79.61;101615.02;1766557;79;26783;-61
2022/01/26 07:31:30;;;;;;;11.65;7.25;;;;;;;1.15;79.62;101619.08;1787659;79;25862;-62
2022/01/26 07:33:57;;;;;;;12.23;8.13;;;;;;;1.21;79.32;101620.17;1774824;80;27483;-62
2022/01/26 07:36:25;;;;;;;11.12;7.80;;;;;;;1.30;79.37;101620.79;1775444;80;25793;-61
2022/01/26 07:38:55;;;;;;;13.32;7.22;;;;;;;1.35;79.42;101613.05;1776102;79;25512;-60
2022/01/26 07:41:22;;;;;;;11.43;7.10;;;;;;;1.42;79.90;101609.72;1754638;79;26059;-61
2022/01/26 07:43:49;;;;;;;10.10;7.05;;;;;;;1.39;79.21;101613.35;1766051;79;25805;-62
2022/01/26 07:46:17;;;;;;;11.25;6.75;;;;;;;1.45;79.29;101608.73;1778083;79;27487;-61
2022/01/26 07:48:43;;;;;;;12.30;7.40;;;;;;;1.49;79.05;101607.23;1784562;80;25752;-62
2022/01/26 07:51:11;;;;;;;12.43;7.67;;;;;;;1.53;79.02;101606.66;1774172;79;25822;-62
2022/01/26 07:53:38;;;;;;;10.43;7.20;;;;;;;1.58;78.85;101603.83;1752361;79;26105;-61
2022/01/26 07:56:05;;;;;;;13.10;7.65;;;;;;;1.60;78.87;101599.34;1766675;81;25814;-62
2022/01/26 07:58:32;;;;;;;14.30;8.08;;;;;;;1.61;78.77;101605.05;1772019;79;28748;-62
2022/01/26 08:00:59;;;;;;;16.73;8.58;;;;;;;1.64;78.79;101603.15;1771704;80;25721;-62
2022/01/26 08:03:32;;;;;;;11.05;7.47;;;;;;;1.59;79.01;101602.47;1772278;79;25819;-62
2022/01/26 08:05:56;;;;;;;12.78;7.70;;;;;;;1.65;78.75;101596.08;1768128;81;26805;-62
2022/01/26 08:08:22;;;;;;;10.23;6.90;;;;;;;1.71;78.65;101596.68;1775061;80;25786;-62
2022/01/26 08:10:50;;;;;;;16.32;7.58;;;;;;;1.77;78.63;101592.08;1758332;80;28111;-61
2022/01/26 08:13:17;;;;;;;14.78;7.45;;;;;;;1.85;78.88;101597.48;1767364;80;25738;-62
2022/01/26 08:15:44;;;;;;;15.83;8.20;;;;;;;1.91;78.51;101596.86;1764465;80;25775;-62
2022/01/26 08:18:10;;;;;;;14.35;8.43;;;;;;;1.98;78.41;101599.19;1770280;80;25990;-62
2022/01/26 08:20:39;;;;;;;14.40;8.35;;;;;;;2.05;78.25;101594.98;1786967;79;25958;-63
2022/01/26 08:23:07;;;;;;;10.78;7.50;;;;;;;2.14;78.08;101595.95;1781415;78;27445;-63
2022/01/26 08:25:36;;;;;;;15.08;8.13;;;;;;;2.20;77.94;101595.70;1765585;80;26678;-60
2022/01/26 08:28:14;;;;;;;13.83;7.55;;;;;;;2.26;77.67;101602.07;1764822;80;25702;-63
2022/01/26 08:30:38;;;;;;;16.12;8.78;;;;;;;2.28;77.60;101602.88;1763082;80;25990;-62
2022/01/26 08:33:06;;;;;;;12.37;8.43;;;;;;;2.29;77.19;101605.06;1760454;81;25772;-62
2022/01/26 08:35:36;;;;;;;12.00;7.90;;;;;;;2.26;77.53;101600.75;1764869;79;27472;-62
2022/01/26 08:38:04;;;;;;;14.83;8.65;;;;;;;2.31;77.15;101609.41;1770770;79;25784;-61
2022/01/26 08:40:34;;;;;;;17.05;9.13;;;;;;;2.30;77.01;101601.48;1777791;79;26105;-63
2022/01/26 08:43:07;;;;;;;16.15;8.95;;;;;;;2.28;76.64;101606.02;1776792;80;27362;-62
2022/01/26 08:45:33;;;;;;;14.23;8.60;;;;;;;2.24;76.59;101609.70;1786645;80;25785;-62
2022/01/26 08:48:00;;;;;;;15.20;8.25;;;;;;;2.21;76.66;101611.14;1783335;78;27443;-62
2022/01/26 08:50:27;;;;;;;16.32;8.95;;;;;;;2.13;76.67;101614.98;1790765;78;26676;-62
2022/01/26 08:52:54;;;;;;;17.23;8.85;;;;;;;2.14;76.88;101616.70;1792487;78;25808;-62
2022/01/26 08:55:21;;;;;;;13.43;9.03;;;;;;;2.15;76.75;101617.59;1811222;78;26763;-62
2022/01/26 08:57:48;;;;;;;15.78;9.08;;;;;;;2.13;76.90;101614.98;1796245;78;25820;-62
2022/01/26 09:00:19;;;;;;;13.43;8.00;;;;;;;2.16;77.04;101608.67;1779020;80;26718;-62
2022/01/26 09:02:47;;;;;;;13.30;8.35;;;;;;;2.21;76.94;101612.03;1802540;78;27236;-62
2022/01/26 09:05:14;;;;;;;13.30;9.80;;;;;;;2.22;76.82;101612.44;1785061;80;25730;-59
2022/01/26 09:07:44;;;;;;;13.78;9.45;;;;;;;2.24;76.85;101609.70;1784903;80;25707;-60
2022/01/26 09:10:10;;;;;;;14.70;9.15;;;;;;;2.29;76.90;101615.23;1785120;80;26402;-61
2022/01/26 09:12:42;;;;;;;15.18;9.10;;;;;;;2.32;76.80;101619.55;1779511;78;28239;-61
2022/01/26 09:15:09;;;;;;;15.25;9.45;;;;;;;2.35;76.64;101613.65;1781982;80;26419;-62
2022/01/26 09:17:37;;;;;;;15.80;9.05;;;;;;;2.35;76.52;101620.77;1781153;80;25820;-62
2022/01/26 09:20:06;;;;;;;14.28;9.03;;;;;;;2.35;76.46;101621.62;1778876;80;26081;-60
2022/01/26 09:22:33;;;;;;;14.85;9.68;;;;;;;2.37;76.51;101618.03;1773671;78;25816;-61
2022/01/26 09:25:01;;;;;;;17.02;8.78;;;;;;;2.39;76.44;101615.72;1784185;78;29547;-61
2022/01/26 09:27:27;;;;;;;15.05;9.23;;;;;;;2.40;76.39;101619.25;1778940;80;25764;-62
2022/01/26 09:29:54;;;;;;;12.90;8.98;;;;;;;2.42;76.08;101616.08;1755812;80;25856;-62
2022/01/26 09:32:22;;;;;;;15.65;9.83;;;;;;;2.39;76.04;101612.20;1771429;78;26107;-62
2022/01/26 09:34:50;;;;;;;15.75;9.53;;;;;;;2.38;76.00;101612.66;1774003;78;25991;-62
2022/01/26 09:37:17;;;;;;;13.13;9.15;;;;;;;2.43;75.81;101615.12;1752492;80;27476;-62
2022/01/26 09:39:47;;;;;;;13.75;9.35;;;;;;;2.37;75.75;101610.07;1783880;78;25745;-62
2022/01/26 09:42:15;;;;;;;14.73;8.53;;;;;;;2.41;75.76;101611.69;1754282;79;25702;-62
2022/01/26 09:44:43;;;;;;;13.58;8.58;;;;;;;2.42;75.82;101610.77;1785594;78;26048;-62
2022/01/26 09:47:10;;;;;;;13.58;8.28;;;;;;;2.49;75.93;101622.86;1779230;79;27296;-62
2022/01/26 09:49:38;;;;;;;20.25;12.53;;;;;;;2.55;75.80;101615.11;1750490;81;27512;-62
2022/01/26 09:52:29;;;;;;;18.27;9.75;;;;;;;2.63;75.87;101615.65;1779503;78;25807;-62
2022/01/26 09:54:49;;;;;;;16.70;9.83;;;;;;;2.70;75.73;101606.48;1774119;78;25862;-63
2022/01/26 09:57:17;;;;;;;19.37;11.00;;;;;;;2.74;75.53;101605.41;1776780;80;26101;-62
2022/01/26 09:59:43;;;;;;;15.03;9.63;;;;;;;2.78;75.44;101612.34;1773306;79;26125;-62
2022/01/26 10:02:24;;;;;;;15.98;10.32;;;;;;;2.81;75.23;101612.22;1775132;79;27421;-62
2022/01/26 10:05:05;;;;;;;14.23;9.13;;;;;;;2.87;75.16;101619.52;1776356;80;25912;-62
2022/01/26 10:10:32;;;;;;;14.10;9.13;;;;;;;2.93;74.75;101616.59;1782198;80;26924;-62
2022/01/26 10:15:28;;;;;;;17.82;9.98;;;;;;;3.00;74.47;101610.10;1781628;79;27471;-62
2022/01/26 10:18:12;;;;;;;16.00;8.37;;;;;;;2.96;73.97;101600.04;1777075;79;25946;-62
2022/01/26 10:20:46;;;;;;;13.62;8.63;;;;;;;2.96;73.97;101600.04;1782383;78;25701;-62
2022/01/26 10:23:21;;;;;;;13.62;8.85;;;;;;;3.03;73.41;101608.62;1769765;78;26045;-62
2022/01/26 10:26:14;;;;;;;19.60;9.93;;;;;;;3.02;73.28;101606.89;1772377;79;25915;-62
2022/01/26 10:28:59;;;;;;;16.35;9.88;;;;;;;3.09;73.34;101604.35;1868472;76;25702;-62
2022/01/26 10:31:32;;;;;;;14.68;8.80;;;;;;;3.07;73.39;101603.58;1832940;77;26325;-62
2022/01/26 10:34:04;;;;;;;15.93;8.40;;;;;;;3.11;73.33;101605.16;1850304;77;27555;-62
2022/01/26 10:36:41;;;;;;;15.15;9.28;;;;;;;3.09;73.16;101597.70;1837978;77;25800;-62
2022/01/26 10:39:19;;;;;;;14.07;8.30;;;;;;;3.13;73.04;101595.81;1850744;77;25750;-62
2022/01/26 10:41:45;;;;;;;13.78;8.70;;;;;;;3.16;72.99;101586.34;1837938;77;25685;-62
2022/01/26 10:44:12;;;;;;;15.38;8.58;;;;;;;3.23;72.85;101596.25;1834710;77;25808;-62
2022/01/26 10:46:42;;;;;;;15.90;8.35;;;;;;;3.36;72.61;101588.09;1844616;77;28737;-63
2022/01/26 10:50:30;;;;;;;13.53;7.75;;;;;;;3.54;72.55;101580.24;1838278;77;25998;-61
2022/01/26 10:51:54;;;;;;;14.18;7.50;;;;;;;3.73;71.55;101586.89;1817083;77;25822;-60
2022/01/26 10:56:54;;;;;;;11.00;7.15;;;;;;;4.28;71.07;101571.87;1857442;77;25792;-61
2022/01/26 10:59:21;;;;;;;13.32;8.35;;;;;;;5.15;70.37;101568.34;1844579;77;28775;-62
2022/01/26 11:01:48;;;;;;;12.40;7.80;;;;;;;5.43;68.98;101572.16;1843272;77;25715;-62
2022/01/26 11:04:16;;;;;;;14.98;8.03;;;;;;;5.48;67.74;101572.80;1836159;77;25792;-62
2022/01/26 11:06:47;;;;;;;14.00;8.38;;;;;;;5.46;66.74;101570.22;1822761;77;26001;-61
2022/01/26 11:09:16;;;;;;;12.60;7.85;;;;;;;5.48;66.70;101568.31;1837493;77;25710;-61
2022/01/26 11:11:43;;;;;;;12.13;8.15;;;;;;;5.49;66.68;101564.70;1835895;77;27402;-61
2022/01/26 11:16:56;;;;;;;11.15;7.22;;;;;;;5.41;65.22;101555.41;1886185;76;25484;-62
2022/01/26 11:19:23;;;;;;;11.90;7.45;;;;;;;5.31;65.11;101563.02;1856538;77;25925;-62
2022/01/26 11:21:50;;;;;;;13.08;7.65;;;;;;;5.45;63.74;101563.61;1851421;77;27517;-62
2022/01/26 11:24:24;;;;;;;14.23;8.30;;;;;;;5.45;64.57;101559.16;1822981;77;25732;-63
2022/01/26 11:27:06;;;;;;;11.35;6.60;;;;;;;5.56;63.76;101556.38;1854420;77;25731;-63
2022/01/26 11:29:37;;;;;;;9.50;6.65;;;;;;;5.67;63.33;101547.28;1854086;77;25676;-62
2022/01/26 11:32:22;;;;;;;11.45;6.72;;;;;;;5.76;63.35;101548.59;1856142;77;25727;-62
2022/01/26 11:34:51;;;;;;;11.45;7.83;;;;;;;5.79;61.84;101551.95;1831286;77;27495;-64
2022/01/26 11:37:36;;;;;;;7.80;5.85;;;;;;;5.82;61.34;101548.23;1836670;77;26715;-62
2022/01/26 11:45:36;;;;;;;7.85;5.53;;;;;;;6.17;59.60;101540.05;1808820;77;25733;-63
2022/01/26 11:48:09;;;;;;;8.70;6.60;;;;;;;6.31;60.08;101539.25;1829817;77;27463;-62
2022/01/26 11:50:48;;;;;;;10.55;6.10;;;;;;;6.72;59.34;101533.25;1840036;77;25890;-63
2022/01/26 11:53:21;;;;;;;10.78;6.17;;;;;;;6.70;58.68;101528.95;1848213;77;25813;-63
2022/01/26 11:55:51;;;;;;;8.55;5.70;;;;;;;6.88;58.51;101534.52;1848650;77;25754;-63
2022/01/26 11:58:41;;;;;;;9.35;5.60;;;;;;;7.02;59.00;101528.33;1849254;77;25890;-62
2022/01/26 12:04:05;;;;;;;9.67;5.20;;;;;;;6.51;56.49;101519.84;1822157;76;25787;-61
2022/01/26 12:06:37;;;;;;;7.15;5.10;;;;;;;6.21;56.67;101534.93;1844654;77;25672;-62
2022/01/26 12:09:07;;;;;;;9.35;6.00;;;;;;;6.04;57.98;101535.89;1830015;77;25775;-61
2022/01/26 12:11:35;;;;;;;10.75;6.70;;;;;;;5.94;58.49;101530.20;1823363;78;25794;-61
2022/01/26 12:14:06;;;;;;;9.75;6.12;;;;;;;5.85;58.46;101537.39;1850468;77;27451;-62
2022/01/26 12:16:45;;;;;;;10.32;5.97;;;;;;;5.79;58.51;101544.39;1849713;76;25933;-63
2022/01/26 12:19:34;;;;;;;8.98;5.90;;;;;;;5.75;58.56;101529.51;1833832;76;25523;-62
2022/01/26 12:34:05;;;;;;;10.93;5.10;;;;;;;5.72;58.01;101527.00;1819438;78;25709;-62
2022/01/26 12:36:27;;;;;;;8.28;5.83;;;;;;;5.59;58.13;101532.16;1831387;76;25769;-61
2022/01/26 12:38:57;;;;;;;11.78;5.67;;;;;;;5.44;58.81;101541.87;1836640;77;25787;-61
2022/01/26 12:41:36;;;;;;;12.18;6.15;;;;;;;5.32;58.80;101547.41;1855581;76;27452;-62
2022/01/26 12:44:12;;;;;;;8.73;5.22;;;;;;;5.19;59.28;101541.03;1859318;77;25864;-62
2022/01/26 12:46:41;;;;;;;13.55;5.78;;;;;;;4.97;59.50;101540.38;1850786;76;25779;-62
2022/01/26 12:49:13;;;;;;;10.60;6.78;;;;;;;4.86;59.81;101539.58;1848622;77;25717;-63
2022/01/26 12:51:48;;;;;;;9.10;6.25;;;;;;;4.79;60.42;101543.52;1848074;77;25728;-64
2022/01/26 12:54:16;;;;;;;11.95;6.00;;;;;;;4.77;60.47;101539.20;1834832;77;27510;-63
2022/01/26 12:56:43;;;;;;;18.70;10.58;;;;;;;4.73;60.57;101543.84;1842892;76;25811;-62
2022/01/26 12:59:17;;;;;;;11.08;7.37;;;;;;;4.58;60.84;101554.81;1856465;76;25850;-63
2022/01/26 13:01:53;;;;;;;16.07;8.10;;;;;;;4.46;61.29;101552.75;1848430;77;25774;-61
2022/01/26 13:04:20;;;;;;;12.85;8.28;;;;;;;4.31;61.89;101560.59;1857166;77;25790;-62
2022/01/26 13:06:53;;;;;;;13.38;8.10;;;;;;;4.21;62.37;101556.65;1854037;76;27450;-64
2022/01/26 13:09:27;;;;;;;11.08;6.40;;;;;;;4.15;62.70;101552.97;1846385;76;25879;-62
2022/01/26 13:12:03;;;;;;;10.90;6.67;;;;;;;4.03;63.06;101553.95;1828676;76;25749;-60
2022/01/26 13:14:47;;;;;;;11.20;6.85;;;;;;;3.91;63.80;101560.73;1840739;76;25800;-62
2022/01/26 13:26:07;;;;;;;19.02;8.38;;;;;;;3.79;64.33;101558.65;1850105;76;25482;-61
2022/01/26 13:37:05;;;;;;;12.23;5.70;;;;;;;3.58;64.97;101557.87;1839247;76;25832;-61
2022/01/26 13:52:39;;;;;;;11.40;6.20;;;;;;;3.01;65.40;101575.06;1808524;78;25824;-61
2022/01/26 14:00:11;;;;;;;9.73;4.95;;;;;;;2.85;65.80;101577.52;1805256;77;27484;-64
2022/01/26 14:02:38;;;;;;;8.83;5.50;;;;;;;2.85;65.90;101586.82;1785211;80;25816;-64
2022/01/26 14:05:07;;;;;;;9.13;5.20;;;;;;;2.80;65.87;101577.27;1777470;78;25794;-63
2022/01/26 14:07:35;;;;;;;8.13;4.87;;;;;;;2.79;66.01;101587.95;1800076;78;25852;-63
2022/01/26 14:10:04;;;;;;;8.18;4.78;;;;;;;2.79;66.20;101586.17;1786032;80;25773;-64
2022/01/26 14:12:36;;;;;;;9.08;5.20;;;;;;;2.83;66.46;101588.23;1786154;80;27495;-63
2022/01/26 14:15:00;;;;;;;7.95;4.95;;;;;;;2.88;66.38;101593.34;1780616;79;27316;-64
2022/01/26 14:17:56;;;;;;;9.48;4.97;;;;;;;2.90;66.53;101595.48;1778904;79;25799;-63